Time;durP1;ratioP1;P1;durP2;ratioP2;P2;SDS_P1;SDS_P2;PMS_P1;PMS_P2;Temp;Humidity;BMP_temperature;BMP_pressure;BME280_temperature;BME280_humidity;BME280_pressure;Samples;Min_cycle;Max_cycle;Signal;HPM_P1;HPM_P2
2023/07/28 00:00:14;;;;;;;4.82;3.40;;;;;;;;;;5009318;28;20132;-71
2023/07/28 00:02:42;;;;;;;5.05;2.65;;;;;;;;;;5009414;28;20045;-73
2023/07/28 00:05:08;;;;;;;3.92;2.80;;;;;;;;;;5013040;28;20068;-72
2023/07/28 00:07:35;;;;;;;6.53;3.38;;;;;;;;;;5017903;28;20029;-73
2023/07/28 00:10:01;;;;;;;4.82;3.08;;;;;;;;;;5010665;28;20049;-73
2023/07/28 00:12:26;;;;;;;7.30;3.00;;;;;;;;;;5012900;28;20064;-72
2023/07/28 00:14:52;;;;;;;3.35;2.38;;;;;;;;;;5010589;28;20072;-72
2023/07/28 00:17:17;;;;;;;3.78;2.60;;;;;;;;;;5008184;28;20144;-72
2023/07/28 00:19:42;;;;;;;3.58;2.80;;;;;;;;;;5010872;28;20102;-72
2023/07/28 00:22:08;;;;;;;5.35;2.70;;;;;;;;;;5007814;28;20064;-71
2023/07/28 00:24:33;;;;;;;3.58;2.90;;;;;;;;;;5015200;28;20398;-72
2023/07/28 00:26:58;;;;;;;3.92;2.70;;;;;;;;;;5011015;28;20053;-71
2023/07/28 00:29:24;;;;;;;3.17;2.58;;;;;;;;;;5008677;28;20041;-71
2023/07/28 00:31:49;;;;;;;3.22;2.40;;;;;;;;;;5010413;28;20046;-72
2023/07/28 00:34:15;;;;;;;6.22;2.75;;;;;;;;;;5008264;28;20057;-71
2023/07/28 00:36:40;;;;;;;3.85;2.67;;;;;;;;;;5008663;28;20053;-72
2023/07/28 00:39:06;;;;;;;3.97;2.78;;;;;;;;;;5003020;28;20046;-71
2023/07/28 00:41:32;;;;;;;4.47;3.33;;;;;;;;;;5006232;28;20053;-72
2023/07/28 00:43:57;;;;;;;4.45;3.50;;;;;;;;;;5011970;28;20038;-71
2023/07/28 00:46:23;;;;;;;5.40;3.25;;;;;;;;;;5001000;28;20128;-71
2023/07/28 00:48:49;;;;;;;4.95;3.90;;;;;;;;;;5003124;28;20569;-72
2023/07/28 00:51:15;;;;;;;5.38;3.40;;;;;;;;;;5007392;28;20104;-72
2023/07/28 00:53:40;;;;;;;5.50;3.30;;;;;;;;;;4990925;28;20041;-73
2023/07/28 00:56:07;;;;;;;3.92;2.92;;;;;;;;;;5014673;28;20418;-72
2023/07/28 00:58:33;;;;;;;5.53;2.95;;;;;;;;;;5004977;28;20054;-71
2023/07/28 01:00:59;;;;;;;4.30;2.88;;;;;;;;;;5012033;28;20078;-71
2023/07/28 01:03:25;;;;;;;4.75;3.35;;;;;;;;;;5004661;28;20053;-72
2023/07/28 01:06:02;;;;;;;3.88;3.30;;;;;;;;;;4994145;28;20042;-72
2023/07/28 01:08:54;;;;;;;3.83;3.42;;;;;;;;;;5010510;28;20050;-72
2023/07/28 01:11:20;;;;;;;4.00;3.17;;;;;;;;;;4972739;28;20046;-71
2023/07/28 01:13:46;;;;;;;4.38;3.40;;;;;;;;;;5007715;28;20521;-72
2023/07/28 01:16:11;;;;;;;4.55;3.55;;;;;;;;;;4991528;28;20494;-72
2023/07/28 01:18:37;;;;;;;4.65;3.50;;;;;;;;;;5008653;28;20049;-71
2023/07/28 01:21:06;;;;;;;4.68;3.03;;;;;;;;;;5002727;28;21120;-71
2023/07/28 01:23:57;;;;;;;6.28;3.53;;;;;;;;;;5006406;28;20085;-72
2023/07/28 01:26:41;;;;;;;4.20;3.20;;;;;;;;;;5017512;28;20050;-72
2023/07/28 01:29:07;;;;;;;5.43;3.33;;;;;;;;;;4998802;28;20813;-72
2023/07/28 01:31:32;;;;;;;4.40;3.60;;;;;;;;;;5013290;28;20045;-71
2023/07/28 01:33:58;;;;;;;7.55;3.75;;;;;;;;;;5006591;28;20076;-72
2023/07/28 01:36:23;;;;;;;5.72;3.60;;;;;;;;;;4999203;28;20101;-72
2023/07/28 01:38:49;;;;;;;4.30;3.60;;;;;;;;;;5005731;28;20153;-71
2023/07/28 01:41:14;;;;;;;6.88;4.05;;;;;;;;;;5009050;28;20050;-72
2023/07/28 01:43:41;;;;;;;6.05;3.70;;;;;;;;;;5001181;28;20053;-72
2023/07/28 01:46:07;;;;;;;4.97;3.67;;;;;;;;;;5008833;28;20054;-71
2023/07/28 01:48:33;;;;;;;3.78;3.38;;;;;;;;;;4999223;28;20053;-72
2023/07/28 01:50:59;;;;;;;4.45;3.03;;;;;;;;;;5005031;28;20052;-71
2023/07/28 01:53:24;;;;;;;4.05;3.20;;;;;;;;;;5004291;28;20065;-71
2023/07/28 01:55:50;;;;;;;5.13;3.40;;;;;;;;;;4999314;28;20431;-71
2023/07/28 01:58:15;;;;;;;2.85;2.63;;;;;;;;;;5021528;28;20050;-72
2023/07/28 02:00:41;;;;;;;5.28;3.15;;;;;;;;;;4999982;28;20040;-72
2023/07/28 02:03:07;;;;;;;4.22;3.00;;;;;;;;;;5006190;28;20053;-72
2023/07/28 02:05:32;;;;;;;6.30;3.83;;;;;;;;;;5008818;28;20054;-72
2023/07/28 02:07:58;;;;;;;4.07;3.08;;;;;;;;;;5003098;28;20125;-72
2023/07/28 02:10:23;;;;;;;3.20;2.78;;;;;;;;;;5002771;28;20491;-72
2023/07/28 02:12:51;;;;;;;2.65;2.42;;;;;;;;;;5000552;28;20042;-72
2023/07/28 02:15:16;;;;;;;7.90;2.88;;;;;;;;;;5001178;28;20057;-72
2023/07/28 02:17:42;;;;;;;3.20;2.75;;;;;;;;;;5008317;28;20064;-71
2023/07/28 02:20:12;;;;;;;3.72;3.08;;;;;;;;;;5006179;28;20049;-71
2023/07/28 02:22:38;;;;;;;4.85;2.80;;;;;;;;;;5011531;28;20057;-71
2023/07/28 02:25:04;;;;;;;4.50;2.67;;;;;;;;;;5015744;28;20152;-71
2023/07/28 02:27:31;;;;;;;3.97;2.95;;;;;;;;;;5028017;28;20053;-71
2023/07/28 02:29:56;;;;;;;5.40;2.72;;;;;;;;;;4989686;28;20037;-71
2023/07/28 02:32:22;;;;;;;3.50;2.78;;;;;;;;;;5007231;28;20074;-71
2023/07/28 02:34:47;;;;;;;4.35;2.95;;;;;;;;;;5012187;28;20397;-71
2023/07/28 02:37:14;;;;;;;3.15;2.50;;;;;;;;;;5009089;28;20060;-70
2023/07/28 02:39:40;;;;;;;3.80;3.30;;;;;;;;;;5012408;28;20057;-71
2023/07/28 02:42:07;;;;;;;3.53;2.70;;;;;;;;;;5006696;28;20832;-71
2023/07/28 02:44:33;;;;;;;4.43;2.60;;;;;;;;;;5008605;28;20055;-71
2023/07/28 02:46:58;;;;;;;6.97;2.60;;;;;;;;;;5012103;28;20506;-71
2023/07/28 02:49:23;;;;;;;3.45;2.70;;;;;;;;;;5013716;28;20489;-71
2023/07/28 02:51:49;;;;;;;2.85;2.63;;;;;;;;;;5008615;28;20100;-72
2023/07/28 02:54:14;;;;;;;3.83;2.85;;;;;;;;;;5014330;28;20045;-71
2023/07/28 02:56:40;;;;;;;3.22;2.45;;;;;;;;;;5001295;28;20104;-70
2023/07/28 02:59:09;;;;;;;6.00;2.80;;;;;;;;;;5001552;28;20067;-71
2023/07/28 03:01:35;;;;;;;3.72;2.22;;;;;;;;;;5009596;28;20074;-71
2023/07/28 03:04:02;;;;;;;3.60;2.60;;;;;;;;;;5005056;28;20112;-71
2023/07/28 03:06:32;;;;;;;3.20;2.60;;;;;;;;;;5003908;28;20554;-72
2023/07/28 03:09:00;;;;;;;3.80;2.75;;;;;;;;;;5008463;28;20058;-71
2023/07/28 03:11:40;;;;;;;4.20;3.20;;;;;;;;;;5005896;28;20048;-71
2023/07/28 03:14:05;;;;;;;4.22;2.75;;;;;;;;;;5004822;28;20049;-74
2023/07/28 03:16:31;;;;;;;6.38;3.13;;;;;;;;;;5008880;28;20406;-71
2023/07/28 03:18:56;;;;;;;3.55;2.70;;;;;;;;;;5010535;28;20180;-71
2023/07/28 03:21:22;;;;;;;4.57;3.20;;;;;;;;;;5012631;28;20132;-72
2023/07/28 03:23:47;;;;;;;4.25;2.80;;;;;;;;;;5014574;28;20171;-74
2023/07/28 03:26:12;;;;;;;3.60;2.85;;;;;;;;;;5012604;28;20042;-72
2023/07/28 03:28:38;;;;;;;4.63;3.10;;;;;;;;;;5009899;28;20048;-71
2023/07/28 03:31:03;;;;;;;4.65;3.10;;;;;;;;;;5008252;28;20719;-72
2023/07/28 03:33:29;;;;;;;4.07;3.00;;;;;;;;;;5008876;28;20138;-71
2023/07/28 03:35:54;;;;;;;5.43;3.55;;;;;;;;;;5004564;28;20046;-71
2023/07/28 03:38:21;;;;;;;4.47;3.38;;;;;;;;;;5004591;28;20033;-71
2023/07/28 03:40:47;;;;;;;9.48;3.08;;;;;;;;;;5004834;28;20746;-71
2023/07/28 03:43:12;;;;;;;4.82;3.28;;;;;;;;;;5008292;28;20065;-71
2023/07/28 03:45:38;;;;;;;4.88;3.25;;;;;;;;;;5000124;28;20140;-71
2023/07/28 03:48:03;;;;;;;3.50;2.97;;;;;;;;;;5005961;28;20079;-71
2023/07/28 03:50:29;;;;;;;5.50;2.63;;;;;;;;;;5015149;28;20456;-72
2023/07/28 03:52:54;;;;;;;11.63;2.72;;;;;;;;;;5005023;28;20052;-72
2023/07/28 03:55:20;;;;;;;9.52;2.75;;;;;;;;;;5010984;28;20075;-72
2023/07/28 03:57:46;;;;;;;4.65;3.05;;;;;;;;;;4998647;28;20092;-72
2023/07/28 04:00:13;;;;;;;3.75;3.17;;;;;;;;;;5011713;28;20663;-73
2023/07/28 04:02:39;;;;;;;5.10;2.30;;;;;;;;;;5012722;28;20049;-73
2023/07/28 04:05:04;;;;;;;5.82;2.75;;;;;;;;;;5010096;28;20484;-74
2023/07/28 04:07:30;;;;;;;3.33;2.60;;;;;;;;;;5028078;28;20045;-73
2023/07/28 04:09:56;;;;;;;6.40;2.03;;;;;;;;;;5006023;28;20045;-74
2023/07/28 04:12:21;;;;;;;2.90;2.20;;;;;;;;;;5009875;28;20064;-74
2023/07/28 04:14:46;;;;;;;3.10;1.92;;;;;;;;;;4999002;28;20034;-74
2023/07/28 04:17:12;;;;;;;4.70;1.85;;;;;;;;;;5025700;28;20119;-74
2023/07/28 04:19:38;;;;;;;2.35;2.05;;;;;;;;;;5004597;28;20052;-73
2023/07/28 04:22:04;;;;;;;3.25;2.30;;;;;;;;;;5019691;28;20053;-74
2023/07/28 04:24:31;;;;;;;6.20;2.33;;;;;;;;;;5008274;28;20045;-73
2023/07/28 04:26:57;;;;;;;2.10;1.90;;;;;;;;;;5011923;28;20057;-73
2023/07/28 04:29:22;;;;;;;2.92;2.15;;;;;;;;;;5016649;28;20050;-74
2023/07/28 04:31:48;;;;;;;6.53;2.10;;;;;;;;;;5027840;28;20089;-74
2023/07/28 04:34:19;;;;;;;2.90;2.38;;;;;;;;;;5008538;28;20657;-74
2023/07/28 04:37:05;;;;;;;4.53;2.10;;;;;;;;;;5008557;28;20399;-73
2023/07/28 04:39:55;;;;;;;6.15;2.35;;;;;;;;;;5003692;28;20080;-73
2023/07/28 04:42:20;;;;;;;2.80;2.03;;;;;;;;;;5013942;28;20049;-73
2023/07/28 04:44:47;;;;;;;6.97;2.38;;;;;;;;;;5029518;28;20037;-73
2023/07/28 04:47:13;;;;;;;2.88;2.28;;;;;;;;;;5010305;28;20129;-75
2023/07/28 04:49:38;;;;;;;2.35;2.15;;;;;;;;;;5013008;28;20108;-76
2023/07/28 04:52:04;;;;;;;2.47;2.22;;;;;;;;;;5017613;28;20129;-75
2023/07/28 04:54:44;;;;;;;3.63;2.15;;;;;;;;;;5010070;28;20087;-75
2023/07/28 04:57:10;;;;;;;2.17;1.98;;;;;;;;;;5016210;28;20054;-75
2023/07/28 04:59:37;;;;;;;4.13;2.10;;;;;;;;;;4997628;28;20042;-76
2023/07/28 05:02:03;;;;;;;3.13;2.20;;;;;;;;;;5012421;28;20099;-75
2023/07/28 05:04:28;;;;;;;2.47;2.28;;;;;;;;;;5023753;28;20065;-76
2023/07/28 05:06:55;;;;;;;2.13;1.90;;;;;;;;;;5005533;28;20092;-74
2023/07/28 05:09:20;;;;;;;2.00;1.70;;;;;;;;;;5005313;28;20089;-75
2023/07/28 05:11:46;;;;;;;3.17;2.20;;;;;;;;;;5009713;28;20149;-72
2023/07/28 05:14:11;;;;;;;1.92;1.83;;;;;;;;;;5004950;28;20142;-72
2023/07/28 05:16:37;;;;;;;1.80;1.70;;;;;;;;;;5005676;28;20045;-72
2023/07/28 05:19:09;;;;;;;3.70;2.20;;;;;;;;;;5009764;28;20057;-74
2023/07/28 05:21:53;;;;;;;3.20;2.17;;;;;;;;;;5008110;28;20083;-73
2023/07/28 05:24:24;;;;;;;4.80;2.47;;;;;;;;;;5005292;28;20158;-76
2023/07/28 05:26:50;;;;;;;6.78;2.25;;;;;;;;;;5002296;28;20510;-74
2023/07/28 05:29:16;;;;;;;3.17;2.10;;;;;;;;;;5023084;28;20065;-77
2023/07/28 05:31:42;;;;;;;5.53;2.40;;;;;;;;;;5008226;28;20056;-74
2023/07/28 05:34:20;;;;;;;5.38;2.78;;;;;;;;;;5008528;28;20088;-75
2023/07/28 05:36:46;;;;;;;3.67;2.40;;;;;;;;;;5011190;28;20041;-75
2023/07/28 05:39:12;;;;;;;10.95;2.80;;;;;;;;;;5009572;28;20130;-76
2023/07/28 05:41:41;;;;;;;4.75;3.28;;;;;;;;;;5030456;28;20037;-75
2023/07/28 05:44:09;;;;;;;3.97;2.63;;;;;;;;;;5012570;28;20045;-75
2023/07/28 05:46:35;;;;;;;5.47;2.65;;;;;;;;;;5005624;28;20042;-74
2023/07/28 05:49:01;;;;;;;2.47;2.10;;;;;;;;;;5004971;28;20571;-73
2023/07/28 05:51:26;;;;;;;3.88;2.25;;;;;;;;;;5003097;28;20052;-73
2023/07/28 05:53:52;;;;;;;4.55;2.90;;;;;;;;;;5008523;28;20056;-72
2023/07/28 05:56:19;;;;;;;4.82;2.40;;;;;;;;;;5007470;28;21008;-73
2023/07/28 05:58:46;;;;;;;7.85;2.83;;;;;;;;;;5001946;28;20449;-77
2023/07/28 06:01:11;;;;;;;4.25;2.45;;;;;;;;;;5004422;28;20107;-78
2023/07/28 06:03:59;;;;;;;3.25;2.50;;;;;;;;;;5011566;28;20532;-78
2023/07/28 06:06:26;;;;;;;3.10;2.40;;;;;;;;;;5002608;28;20064;-75
2023/07/28 06:08:53;;;;;;;2.70;1.90;;;;;;;;;;4997343;28;20646;-75
2023/07/28 06:11:19;;;;;;;2.97;2.22;;;;;;;;;;5002811;28;20049;-75
2023/07/28 06:13:46;;;;;;;2.80;2.22;;;;;;;;;;4998706;28;20395;-76
2023/07/28 06:16:12;;;;;;;4.10;2.47;;;;;;;;;;5001696;28;20084;-76
2023/07/28 06:18:38;;;;;;;4.40;2.22;;;;;;;;;;5001629;28;20518;-76
2023/07/28 06:21:09;;;;;;;2.28;1.90;;;;;;;;;;4997874;28;20530;-73
2023/07/28 06:23:35;;;;;;;2.85;2.10;;;;;;;;;;5005386;28;20046;-78
2023/07/28 06:26:01;;;;;;;3.75;2.05;;;;;;;;;;5006801;28;20049;-77
2023/07/28 06:28:26;;;;;;;3.03;2.10;;;;;;;;;;5012960;28;20053;-74
2023/07/28 06:30:55;;;;;;;1.60;1.50;;;;;;;;;;4999698;28;20695;-75
2023/07/28 06:33:22;;;;;;;3.22;2.08;;;;;;;;;;5003922;28;20595;-76
2023/07/28 06:35:48;;;;;;;2.55;2.03;;;;;;;;;;4997963;28;20046;-76
2023/07/28 06:38:13;;;;;;;2.70;2.08;;;;;;;;;;5001139;28;20045;-76
2023/07/28 06:40:39;;;;;;;4.90;2.03;;;;;;;;;;4999397;28;20038;-77
2023/07/28 06:43:04;;;;;;;3.65;1.85;;;;;;;;;;5007113;28;20053;-74
2023/07/28 06:45:30;;;;;;;2.20;2.00;;;;;;;;;;5004103;28;20087;-74
2023/07/28 06:47:55;;;;;;;2.58;1.95;;;;;;;;;;4984436;28;20974;-75
2023/07/28 06:50:21;;;;;;;5.05;2.00;;;;;;;;;;5003519;28;20087;-75
2023/07/28 06:52:47;;;;;;;2.60;1.90;;;;;;;;;;4999776;28;20046;-75
2023/07/28 06:55:15;;;;;;;6.03;2.22;;;;;;;;;;5001193;28;20076;-74
2023/07/28 06:57:40;;;;;;;1.90;1.73;;;;;;;;;;5010293;28;20080;-75
2023/07/28 07:00:09;;;;;;;3.47;1.80;;;;;;;;;;5002563;28;20534;-79
2023/07/28 07:02:35;;;;;;;2.88;2.28;;;;;;;;;;5004021;28;20049;-73
2023/07/28 07:05:01;;;;;;;4.38;2.05;;;;;;;;;;5008940;28;20054;-74
2023/07/28 07:07:26;;;;;;;4.00;2.13;;;;;;;;;;5006786;28;20084;-75
2023/07/28 07:09:52;;;;;;;2.17;1.98;;;;;;;;;;5003493;28;20045;-79
2023/07/28 07:12:19;;;;;;;2.63;1.90;;;;;;;;;;5007837;28;20041;-74
2023/07/28 07:14:44;;;;;;;2.55;1.88;;;;;;;;;;5006739;28;20077;-75
2023/07/28 07:17:10;;;;;;;1.70;1.60;;;;;;;;;;5007425;28;20084;-74
2023/07/28 07:19:35;;;;;;;2.42;1.60;;;;;;;;;;5014252;28;20059;-73
2023/07/28 07:22:01;;;;;;;1.60;1.50;;;;;;;;;;5009505;28;20092;-73
2023/07/28 07:24:27;;;;;;;3.15;1.52;;;;;;;;;;5009373;28;20054;-71
2023/07/28 07:26:52;;;;;;;2.03;1.60;;;;;;;;;;5002967;28;20058;-72
2023/07/28 07:29:18;;;;;;;2.05;1.40;;;;;;;;;;5014568;28;20042;-77
2023/07/28 07:31:43;;;;;;;1.95;1.40;;;;;;;;;;5016823;28;20049;-77
2023/07/28 07:34:09;;;;;;;2.00;1.70;;;;;;;;;;5008958;28;20127;-74
2023/07/28 07:36:34;;;;;;;5.07;1.40;;;;;;;;;;5006385;28;20048;-75
2023/07/28 07:39:00;;;;;;;1.67;1.45;;;;;;;;;;5009158;28;20130;-77
2023/07/28 07:41:26;;;;;;;1.52;1.30;;;;;;;;;;5018002;28;20045;-73
2023/07/28 07:43:53;;;;;;;1.55;1.27;;;;;;;;;;5002073;28;20132;-75
2023/07/28 07:46:19;;;;;;;1.45;1.35;;;;;;;;;;5009839;28;20049;-75
2023/07/28 07:48:45;;;;;;;2.70;1.60;;;;;;;;;;5004680;28;20050;-73
2023/07/28 07:51:11;;;;;;;2.13;1.38;;;;;;;;;;5005261;28;20180;-73
2023/07/28 07:53:36;;;;;;;2.00;1.45;;;;;;;;;;5002977;28;20148;-74
2023/07/28 07:56:03;;;;;;;2.42;1.40;;;;;;;;;;5001312;28;20049;-80
2023/07/28 07:58:29;;;;;;;2.40;1.40;;;;;;;;;;5004555;28;20045;-76
2023/07/28 08:00:55;;;;;;;1.98;1.42;;;;;;;;;;5005763;28;20050;-73
2023/07/28 08:03:20;;;;;;;1.67;1.58;;;;;;;;;;5005778;28;20899;-74
2023/07/28 08:05:46;;;;;;;1.60;1.50;;;;;;;;;;5008535;28;20140;-75
2023/07/28 08:08:11;;;;;;;3.38;1.70;;;;;;;;;;5007718;28;20052;-76
2023/07/28 08:10:39;;;;;;;1.30;1.20;;;;;;;;;;5009769;28;20533;-77
2023/07/28 08:13:04;;;;;;;1.58;1.30;;;;;;;;;;5006153;28;20132;-74
2023/07/28 08:15:30;;;;;;;4.05;1.30;;;;;;;;;;5009478;28;20056;-79
2023/07/28 08:17:55;;;;;;;1.50;1.40;;;;;;;;;;5010384;28;20142;-77
2023/07/28 08:20:20;;;;;;;4.65;1.25;;;;;;;;;;5009695;28;20069;-76
2023/07/28 08:22:46;;;;;;;1.88;1.40;;;;;;;;;;5013933;28;20086;-74
2023/07/28 08:25:11;;;;;;;1.60;1.50;;;;;;;;;;5001574;28;20062;-77
2023/07/28 08:27:37;;;;;;;1.30;1.20;;;;;;;;;;5006318;28;20050;-75
2023/07/28 08:30:03;;;;;;;1.42;1.27;;;;;;;;;;5007196;28;20073;-73
2023/07/28 08:32:28;;;;;;;2.20;1.40;;;;;;;;;;5002216;28;20054;-74
2023/07/28 08:34:54;;;;;;;1.95;1.23;;;;;;;;;;5002840;28;20057;-77
2023/07/28 08:37:20;;;;;;;1.48;1.38;;;;;;;;;;5001147;28;20053;-75
2023/07/28 08:39:45;;;;;;;1.50;1.40;;;;;;;;;;5000587;28;20414;-75
2023/07/28 08:42:11;;;;;;;1.33;1.23;;;;;;;;;;4998191;28;20050;-74
2023/07/28 08:44:36;;;;;;;1.58;1.48;;;;;;;;;;5004200;28;20052;-75
2023/07/28 08:47:07;;;;;;;1.27;1.13;;;;;;;;;;5005144;28;20057;-74
2023/07/28 08:49:35;;;;;;;1.25;1.05;;;;;;;;;;4989290;28;20050;-73
2023/07/28 08:52:03;;;;;;;1.67;1.30;;;;;;;;;;4996127;28;20493;-74
2023/07/28 08:54:29;;;;;;;1.60;1.20;;;;;;;;;;4996775;28;20045;-76
2023/07/28 08:56:54;;;;;;;1.92;1.30;;;;;;;;;;5005928;28;20080;-80
2023/07/28 08:59:25;;;;;;;3.78;1.58;;;;;;;;;;5008485;28;20069;-76
2023/07/28 09:01:51;;;;;;;;;;;;;;;;;;5009066;28;20041;-77
2023/07/28 09:04:17;;;;;;;1.75;1.35;;;;;;;;;;5011390;28;19933;-78
2023/07/28 09:06:46;;;;;;;1.40;1.30;;;;;;;;;;5009256;28;20053;-77
2023/07/28 09:09:11;;;;;;;1.73;1.48;;;;;;;;;;5016486;28;20137;-76
2023/07/28 09:11:48;;;;;;;1.20;1.10;;;;;;;;;;5007853;28;20052;-78
2023/07/28 09:14:16;;;;;;;1.40;1.20;;;;;;;;;;5006654;28;20507;-77
2023/07/28 09:16:42;;;;;;;2.03;1.40;;;;;;;;;;5002200;28;20037;-77
2023/07/28 09:19:08;;;;;;;4.88;1.48;;;;;;;;;;5003483;28;20079;-76
2023/07/28 09:21:34;;;;;;;3.53;1.40;;;;;;;;;;5001233;28;20045;-77
2023/07/28 09:24:03;;;;;;;1.30;1.20;;;;;;;;;;5002985;28;20053;-78
2023/07/28 09:26:42;;;;;;;1.60;1.40;;;;;;;;;;5005550;28;20132;-75
2023/07/28 09:29:19;;;;;;;1.30;1.20;;;;;;;;;;5002079;28;20068;-75
2023/07/28 09:31:46;;;;;;;1.42;1.20;;;;;;;;;;5005675;28;20103;-77
2023/07/28 09:34:13;;;;;;;1.20;1.00;;;;;;;;;;4999468;28;20060;-77
2023/07/28 09:36:39;;;;;;;4.75;1.50;;;;;;;;;;5002728;28;20052;-76
2023/07/28 09:39:08;;;;;;;2.22;1.42;;;;;;;;;;5006288;28;21513;-73
2023/07/28 09:41:38;;;;;;;1.45;1.30;;;;;;;;;;5020209;28;20050;-74
2023/07/28 09:44:05;;;;;;;2.65;1.42;;;;;;;;;;5002613;28;20060;-72
2023/07/28 09:46:36;;;;;;;2.05;1.60;;;;;;;;;;4997269;28;20136;-74
2023/07/28 09:49:05;;;;;;;4.53;2.00;;;;;;;;;;4997433;28;20404;-72
2023/07/28 09:51:32;;;;;;;1.50;1.40;;;;;;;;;;4996436;28;20042;-74
2023/07/28 09:54:38;;;;;;;1.65;1.50;;;;;;;;;;5000732;28;20479;-72
2023/07/28 09:57:04;;;;;;;1.67;1.58;;;;;;;;;;4994896;28;20073;-76
2023/07/28 09:59:35;;;;;;;2.72;1.88;;;;;;;;;;5002397;28;20056;-72
2023/07/28 10:02:01;;;;;;;1.60;1.48;;;;;;;;;;5001476;28;20067;-71
2023/07/28 10:04:26;;;;;;;2.15;1.58;;;;;;;;;;5004589;28;20045;-71
2023/07/28 10:06:56;;;;;;;2.92;1.77;;;;;;;;;;5004135;28;20050;-75
2023/07/28 10:09:28;;;;;;;4.53;1.55;;;;;;;;;;5009157;28;20053;-72
2023/07/28 10:11:55;;;;;;;4.07;1.58;;;;;;;;;;5005758;28;20049;-74
2023/07/28 10:14:31;;;;;;;1.45;1.25;;;;;;;;;;5005688;28;20534;-72
2023/07/28 10:17:01;;;;;;;4.50;1.38;;;;;;;;;;5001539;28;20077;-71
2023/07/28 10:19:28;;;;;;;1.90;1.45;;;;;;;;;;5007696;28;20060;-72
2023/07/28 10:22:06;;;;;;;1.58;1.48;;;;;;;;;;5009877;28;20046;-73
2023/07/28 10:25:06;;;;;;;1.65;1.45;;;;;;;;;;5008663;28;20058;-73
2023/07/28 10:27:36;;;;;;;2.67;1.65;;;;;;;;;;4965435;28;20115;-72
2023/07/28 10:30:11;;;;;;;4.68;1.80;;;;;;;;;;5008958;28;20144;-71
2023/07/28 10:32:50;;;;;;;2.90;1.90;;;;;;;;;;5009120;28;20046;-73
2023/07/28 10:35:21;;;;;;;2.75;1.70;;;;;;;;;;5015671;28;20107;-73
2023/07/28 10:37:47;;;;;;;2.70;1.80;;;;;;;;;;5007167;28;20050;-71
2023/07/28 10:40:28;;;;;;;1.80;1.70;;;;;;;;;;5009386;28;20046;-73
2023/07/28 10:42:55;;;;;;;1.55;1.45;;;;;;;;;;5004854;28;20060;-74
2023/07/28 10:45:23;;;;;;;1.48;1.38;;;;;;;;;;5000758;28;20053;-73
2023/07/28 10:47:48;;;;;;;2.38;1.48;;;;;;;;;;4999853;28;20227;-74
2023/07/28 10:50:15;;;;;;;3.25;1.83;;;;;;;;;;5001007;28;20154;-71
2023/07/28 10:52:44;;;;;;;1.65;1.50;;;;;;;;;;5007537;28;20053;-72
2023/07/28 10:55:18;;;;;;;1.52;1.42;;;;;;;;;;5009075;28;20407;-70
2023/07/28 10:57:45;;;;;;;2.88;1.65;;;;;;;;;;5002673;28;20144;-72
2023/07/28 11:00:12;;;;;;;1.60;1.50;;;;;;;;;;5000708;28;20080;-74
2023/07/28 11:02:41;;;;;;;3.53;1.55;;;;;;;;;;5001943;28;20177;-71
2023/07/28 11:05:14;;;;;;;1.60;1.50;;;;;;;;;;5003176;28;20458;-73
2023/07/28 11:07:43;;;;;;;1.85;1.48;;;;;;;;;;5009118;28;20108;-71
2023/07/28 11:10:13;;;;;;;2.45;1.45;;;;;;;;;;5010336;28;20698;-71
2023/07/28 11:12:46;;;;;;;1.58;1.30;;;;;;;;;;5012606;28;20053;-71
2023/07/28 11:15:13;;;;;;;2.30;1.30;;;;;;;;;;5017478;28;20087;-73
2023/07/28 11:17:41;;;;;;;3.22;1.60;;;;;;;;;;5012940;28;20048;-70
2023/07/28 11:20:16;;;;;;;1.67;1.58;;;;;;;;;;5008063;28;20073;-74
2023/07/28 11:22:44;;;;;;;1.58;1.40;;;;;;;;;;5003304;28;20503;-73
2023/07/28 11:25:09;;;;;;;1.50;1.40;;;;;;;;;;4988268;28;20060;-76
2023/07/28 11:27:39;;;;;;;1.55;1.38;;;;;;;;;;5005592;28;20045;-71
2023/07/28 11:30:07;;;;;;;1.70;1.40;;;;;;;;;;5006268;28;20042;-76
2023/07/28 11:32:37;;;;;;;1.83;1.52;;;;;;;;;;5012968;28;20075;-75
2023/07/28 11:35:06;;;;;;;3.47;1.40;;;;;;;;;;5010327;28;20064;-74
2023/07/28 11:37:33;;;;;;;2.78;1.58;;;;;;;;;;5014119;28;20396;-73
2023/07/28 11:40:01;;;;;;;1.60;1.50;;;;;;;;;;5012883;28;20038;-72
2023/07/28 11:42:29;;;;;;;2.65;1.90;;;;;;;;;;5009764;28;20042;-74
2023/07/28 11:44:55;;;;;;;1.88;1.50;;;;;;;;;;5014003;28;20151;-76
2023/07/28 11:47:20;;;;;;;3.08;1.52;;;;;;;;;;5015336;28;20106;-71
2023/07/28 11:49:47;;;;;;;2.38;1.60;;;;;;;;;;5008461;28;20145;-72
2023/07/28 11:52:12;;;;;;;1.42;1.33;;;;;;;;;;5018005;28;20045;-73
2023/07/28 11:54:38;;;;;;;1.30;1.20;;;;;;;;;;5019594;28;20045;-72
2023/07/28 11:57:03;;;;;;;1.60;1.30;;;;;;;;;;5009722;28;20041;-72
2023/07/28 11:59:29;;;;;;;1.50;1.40;;;;;;;;;;5010454;28;20042;-74
2023/07/28 12:01:59;;;;;;;1.70;1.33;;;;;;;;;;5012672;28;20080;-71
2023/07/28 12:04:28;;;;;;;2.37;1.53;;;;;;;;;;5006539;28;20050;-74
2023/07/28 12:07:14;;;;;;;2.92;1.50;;;;;;;;;;5007914;28;20095;-72
2023/07/28 12:09:46;;;;;;;4.40;1.45;;;;;;;;;;5006637;28;20483;-72
2023/07/28 12:12:23;;;;;;;1.40;1.30;;;;;;;;;;5009623;28;20042;-76
2023/07/28 12:14:51;;;;;;;1.70;1.60;;;;;;;;;;5011264;28;20034;-72
2023/07/28 12:17:23;;;;;;;2.00;1.60;;;;;;;;;;5010117;28;20054;-73
2023/07/28 12:19:56;;;;;;;1.58;1.40;;;;;;;;;;5011345;28;20045;-73
2023/07/28 12:22:21;;;;;;;2.72;1.67;;;;;;;;;;5012333;28;20498;-72
2023/07/28 12:24:46;;;;;;;1.73;1.63;;;;;;;;;;5006486;28;20038;-76
2023/07/28 12:27:13;;;;;;;1.92;1.17;;;;;;;;;;5004839;28;20055;-72
2023/07/28 12:29:39;;;;;;;1.52;1.35;;;;;;;;;;5008547;28;20662;-75
2023/07/28 12:32:05;;;;;;;2.05;1.42;;;;;;;;;;5007881;28;20053;-80
2023/07/28 12:34:30;;;;;;;1.98;1.75;;;;;;;;;;5013058;28;20056;-77
2023/07/28 12:36:56;;;;;;;2.08;1.42;;;;;;;;;;5008377;28;20052;-76
2023/07/28 12:39:21;;;;;;;1.65;1.40;;;;;;;;;;5011078;28;20041;-73
2023/07/28 12:41:47;;;;;;;1.90;1.70;;;;;;;;;;5026183;28;20049;-74
2023/07/28 12:44:12;;;;;;;2.50;1.60;;;;;;;;;;5010835;28;20160;-74
2023/07/28 12:46:39;;;;;;;1.45;1.35;;;;;;;;;;5006024;28;20041;-74
2023/07/28 12:49:06;;;;;;;1.60;1.50;;;;;;;;;;5004764;28;20545;-76
2023/07/28 12:51:32;;;;;;;1.90;1.50;;;;;;;;;;5005277;28;20540;-75
2023/07/28 12:53:57;;;;;;;1.67;1.45;;;;;;;;;;5013467;28;20507;-75
2023/07/28 12:56:23;;;;;;;1.70;1.60;;;;;;;;;;5014079;28;20783;-75
2023/07/28 12:58:49;;;;;;;2.05;1.60;;;;;;;;;;5009320;28;20053;-79
2023/07/28 13:01:14;;;;;;;3.40;1.80;;;;;;;;;;5004035;28;20087;-72
2023/07/28 13:03:39;;;;;;;1.30;1.20;;;;;;;;;;5009538;28;20037;-73
2023/07/28 13:06:05;;;;;;;1.55;1.42;;;;;;;;;;5007232;28;20427;-71
2023/07/28 13:08:30;;;;;;;1.48;1.38;;;;;;;;;;5002127;28;20054;-72
2023/07/28 13:10:56;;;;;;;2.83;1.95;;;;;;;;;;5007926;28;20061;-72
2023/07/28 13:13:21;;;;;;;1.40;1.30;;;;;;;;;;5007568;28;20049;-73
2023/07/28 13:15:47;;;;;;;1.65;1.30;;;;;;;;;;5006610;28;20041;-73
2023/07/28 13:18:12;;;;;;;1.50;1.40;;;;;;;;;;5010301;28;20095;-71
2023/07/28 13:20:38;;;;;;;1.65;1.50;;;;;;;;;;5007305;28;20065;-76
2023/07/28 13:23:03;;;;;;;2.95;1.63;;;;;;;;;;5009250;28;20140;-75
2023/07/28 13:25:29;;;;;;;1.73;1.63;;;;;;;;;;5004969;28;20127;-72
2023/07/28 13:27:54;;;;;;;10.25;1.88;;;;;;;;;;5005707;28;20049;-76
2023/07/28 13:30:20;;;;;;;1.65;1.30;;;;;;;;;;5009361;28;20041;-76
2023/07/28 13:32:45;;;;;;;1.60;1.25;;;;;;;;;;5008005;28;20037;-74
2023/07/28 13:35:11;;;;;;;2.10;1.55;;;;;;;;;;5003537;28;20596;-72
2023/07/28 13:37:36;;;;;;;1.70;1.60;;;;;;;;;;4999492;28;20104;-73
2023/07/28 13:40:02;;;;;;;1.58;1.48;;;;;;;;;;5000062;28;20050;-72
2023/07/28 13:42:28;;;;;;;2.00;1.65;;;;;;;;;;4999923;28;20056;-72
2023/07/28 13:44:53;;;;;;;2.10;1.48;;;;;;;;;;5006104;28;20056;-75
2023/07/28 13:47:19;;;;;;;1.77;1.50;;;;;;;;;;5004072;28;20596;-73
2023/07/28 13:49:44;;;;;;;2.30;1.40;;;;;;;;;;5005495;28;20060;-73
2023/07/28 13:52:09;;;;;;;2.50;1.50;;;;;;;;;;4993717;28;20060;-77
2023/07/28 13:54:35;;;;;;;1.58;1.48;;;;;;;;;;5012956;28;20076;-77
2023/07/28 13:57:01;;;;;;;1.55;1.45;;;;;;;;;;5005807;28;20057;-72
2023/07/28 13:59:27;;;;;;;2.08;1.45;;;;;;;;;;5005933;28;20494;-73
2023/07/28 14:01:52;;;;;;;2.85;1.48;;;;;;;;;;5007225;28;20048;-72
2023/07/28 14:04:18;;;;;;;1.60;1.50;;;;;;;;;;5000673;28;20050;-72
2023/07/28 14:06:43;;;;;;;1.63;1.52;;;;;;;;;;5006626;28;20046;-73
2023/07/28 14:09:09;;;;;;;1.80;1.70;;;;;;;;;;5011482;28;20056;-72
2023/07/28 14:11:35;;;;;;;1.92;1.38;;;;;;;;;;4999287;28;20053;-73
2023/07/28 14:14:00;;;;;;;2.53;1.38;;;;;;;;;;5005634;28;20108;-72
2023/07/28 14:16:26;;;;;;;1.60;1.50;;;;;;;;;;5007680;28;20057;-71
2023/07/28 14:18:51;;;;;;;1.80;1.40;;;;;;;;;;5004392;28;20054;-72
2023/07/28 14:21:17;;;;;;;1.23;1.17;;;;;;;;;;5004022;28;20523;-72
2023/07/28 14:23:42;;;;;;;1.55;1.45;;;;;;;;;;5004036;28;20487;-72
2023/07/28 14:26:08;;;;;;;1.30;1.20;;;;;;;;;;5001871;28;20064;-72
2023/07/28 14:28:33;;;;;;;1.52;1.42;;;;;;;;;;5002188;28;20604;-72
2023/07/28 14:30:59;;;;;;;2.08;1.40;;;;;;;;;;5002684;28;20045;-72
2023/07/28 14:33:24;;;;;;;1.70;1.60;;;;;;;;;;5007239;28;20069;-72
2023/07/28 14:35:50;;;;;;;2.03;1.83;;;;;;;;;;5015206;28;20085;-72
2023/07/28 14:38:16;;;;;;;2.20;1.60;;;;;;;;;;5006708;28;20054;-73
2023/07/28 14:40:44;;;;;;;1.58;1.45;;;;;;;;;;5002859;28;20153;-74
2023/07/28 14:43:09;;;;;;;3.67;1.40;;;;;;;;;;5012302;28;20045;-73